createdAt,value
2023-04-05T00:00:50.387Z,277.23
2023-04-05T00:03:16.999Z,262.58
2023-04-05T00:05:43.525Z,259.80
2023-04-05T00:08:09.900Z,254.65
2023-04-05T00:10:36.244Z,257.70
2023-04-05T00:13:02.925Z,247.88
2023-04-05T00:15:29.466Z,248.35
2023-04-05T00:17:55.916Z,241.05
2023-04-05T00:20:22.489Z,238.40
2023-04-05T00:22:49.097Z,232.68
2023-04-05T00:25:15.422Z,229.02
2023-04-05T00:27:41.863Z,224.35
2023-04-05T00:30:08.190Z,221.80
2023-04-05T00:32:34.578Z,218.80
2023-04-05T00:35:00.910Z,214.60
2023-04-05T00:37:27.294Z,209.25
2023-04-05T00:39:53.628Z,210.50
2023-04-05T00:42:20.188Z,205.60
2023-04-05T00:44:46.457Z,203.80
2023-04-05T00:47:12.854Z,200.52
2023-04-05T00:49:39.228Z,194.45
2023-04-05T00:52:05.556Z,193.05
2023-04-05T00:54:31.930Z,187.82
2023-04-05T00:56:58.312Z,189.05
2023-04-05T00:59:24.748Z,180.27
2023-04-05T01:01:51.113Z,181.55
2023-04-05T01:04:17.443Z,176.20
2023-04-05T01:06:43.895Z,174.00
2023-04-05T01:09:10.428Z,168.40
2023-04-05T01:11:36.764Z,162.73
2023-04-05T01:14:03.180Z,169.48
2023-04-05T01:16:29.501Z,165.75
2023-04-05T01:19:05.762Z,156.23
2023-04-05T01:21:32.304Z,152.35
2023-04-05T01:23:58.767Z,151.07
2023-04-05T01:26:25.512Z,153.80
2023-04-05T01:28:51.940Z,148.10
2023-04-05T01:31:18.387Z,145.35
2023-04-05T01:33:44.927Z,144.98
2023-04-05T01:36:11.359Z,140.98
2023-04-05T01:38:37.756Z,136.98
2023-04-05T01:41:04.326Z,135.20
2023-04-05T01:43:30.794Z,132.30
2023-04-05T01:45:57.410Z,128.77
2023-04-05T01:48:23.790Z,129.02
2023-04-05T01:50:50.126Z,123.60
2023-04-05T01:53:16.556Z,123.00
2023-04-05T01:55:43.227Z,127.57
2023-04-05T01:58:09.570Z,121.38
2023-04-05T02:00:35.981Z,116.32
2023-04-05T02:03:02.585Z,116.53
2023-04-05T02:05:28.990Z,114.75
2023-04-05T02:07:55.326Z,114.82
2023-04-05T02:10:22.084Z,113.60
2023-04-05T02:12:48.492Z,110.32
2023-04-05T02:15:14.866Z,106.03
2023-04-05T02:17:41.368Z,104.97
2023-04-05T02:20:07.786Z,104.20
2023-04-05T02:22:34.189Z,101.65
2023-04-05T02:25:00.589Z,101.97
2023-04-05T02:27:27.429Z,101.43
2023-04-05T02:29:54.298Z,96.25
2023-04-05T02:32:21.223Z,94.60
2023-04-05T02:34:47.636Z,89.10
2023-04-05T02:37:14.027Z,90.88
2023-04-05T02:39:40.371Z,94.38
2023-04-05T02:42:07.691Z,86.97
2023-04-05T02:44:34.041Z,88.63
2023-04-05T02:47:00.465Z,84.75
2023-04-05T02:49:27.087Z,84.78
2023-04-05T02:51:53.428Z,84.40
2023-04-05T02:54:20.085Z,82.03
2023-04-05T02:56:46.409Z,79.90
2023-04-05T02:59:12.821Z,77.80
2023-04-05T03:01:39.349Z,78.68
2023-04-05T03:04:06.306Z,75.10
2023-04-05T03:06:32.618Z,75.60
2023-04-05T03:08:58.947Z,74.55
2023-04-05T03:11:25.237Z,73.03
2023-04-05T03:13:51.934Z,72.32
2023-04-05T03:16:18.322Z,71.53
2023-04-05T03:18:45.339Z,69.20
2023-04-05T03:21:12.006Z,66.90
2023-04-05T03:23:38.483Z,64.97
2023-04-05T03:26:04.851Z,64.60
2023-04-05T03:28:31.589Z,64.55
2023-04-05T03:30:57.940Z,66.25
2023-04-05T03:33:24.394Z,61.63
2023-04-05T03:35:50.884Z,64.70
2023-04-05T03:38:18.083Z,62.60
2023-04-05T03:40:44.951Z,61.58
2023-04-05T03:43:11.779Z,58.97
2023-04-05T03:45:38.346Z,58.10
2023-04-05T03:48:04.817Z,58.78
2023-04-05T03:50:31.187Z,59.42
2023-04-05T03:52:57.881Z,59.10
2023-04-05T03:55:24.286Z,53.00
2023-04-05T03:57:50.861Z,54.00
2023-04-05T04:00:17.872Z,53.83
2023-04-05T04:02:44.271Z,53.72
2023-04-05T04:05:10.608Z,52.65
2023-04-05T04:07:36.958Z,50.95
2023-04-05T04:10:03.300Z,54.03
2023-04-05T04:12:29.952Z,48.92
2023-04-05T04:14:56.338Z,47.05
2023-04-05T04:17:22.626Z,48.40
2023-04-05T04:19:49.047Z,50.60
2023-04-05T04:22:15.807Z,46.67
2023-04-05T04:24:42.336Z,49.28
2023-04-05T04:27:08.705Z,45.05
2023-04-05T04:29:35.047Z,42.15
2023-04-05T04:32:01.441Z,43.97
2023-04-05T04:34:27.941Z,41.28
2023-04-05T04:36:54.344Z,43.08
2023-04-05T04:39:20.730Z,43.15
2023-04-05T04:41:47.539Z,39.63
2023-04-05T04:44:14.123Z,39.65
2023-04-05T04:46:40.491Z,39.00
2023-04-05T04:49:08.369Z,38.92
2023-04-05T04:51:34.677Z,38.42
2023-04-05T04:54:01.273Z,37.53
2023-04-05T04:56:27.706Z,37.63
2023-04-05T04:58:54.711Z,35.80
2023-04-05T05:01:21.676Z,36.15
2023-04-05T05:03:48.397Z,34.45
2023-04-05T05:06:14.713Z,35.47
2023-04-05T05:08:41.147Z,34.42
2023-04-05T05:11:07.547Z,34.50
2023-04-05T05:13:33.967Z,33.67
2023-04-05T05:16:00.654Z,32.72
2023-04-05T05:18:27.692Z,33.08
2023-04-05T05:20:54.475Z,32.72
2023-04-05T05:23:20.813Z,30.48
2023-04-05T05:25:47.959Z,23.67
2023-04-05T05:28:14.287Z,25.23
2023-04-05T05:30:40.993Z,21.55
2023-04-05T05:33:07.612Z,20.30
2023-04-05T05:35:34.198Z,21.15
2023-04-05T05:38:00.553Z,21.55
2023-04-05T05:40:27.310Z,20.55
2023-04-05T05:42:53.698Z,20.23
2023-04-05T05:45:20.086Z,20.60
2023-04-05T05:47:46.504Z,20.50
2023-04-05T05:50:12.855Z,18.70
2023-04-05T05:52:39.183Z,21.25
2023-04-05T05:55:05.587Z,18.25
2023-04-05T05:57:31.960Z,19.60
2023-04-05T05:59:59.017Z,20.08
2023-04-05T06:02:26.073Z,18.08
2023-04-05T06:04:53.282Z,18.75
2023-04-05T06:07:20.034Z,20.23
2023-04-05T06:09:47.176Z,15.77
2023-04-05T06:12:13.950Z,19.73
2023-04-05T06:14:40.842Z,16.98
2023-04-05T06:17:07.570Z,16.05
2023-04-05T06:19:34.269Z,16.33
2023-04-05T06:22:00.614Z,18.50
2023-04-05T06:24:27.012Z,17.20
2023-04-05T06:26:53.346Z,16.30
2023-04-05T06:29:19.760Z,15.15
2023-04-05T06:31:46.240Z,16.73
2023-04-05T06:34:12.746Z,16.58
2023-04-05T06:36:39.287Z,15.57
2023-04-05T06:39:05.700Z,15.63
2023-04-05T06:41:32.174Z,14.43
2023-04-05T06:43:58.576Z,15.43
2023-04-05T06:46:25.680Z,15.13
2023-04-05T06:48:52.179Z,17.63
2023-04-05T06:51:18.953Z,13.80
2023-04-05T06:53:45.709Z,15.65
2023-04-05T06:56:12.132Z,15.55
2023-04-05T06:58:38.884Z,13.32
2023-04-05T07:01:05.617Z,13.85
2023-04-05T07:03:32.083Z,13.75
2023-04-05T07:05:58.871Z,15.02
2023-04-05T07:08:25.259Z,13.07
2023-04-05T07:10:51.541Z,12.18
2023-04-05T07:13:18.505Z,13.68
2023-04-05T07:15:44.860Z,12.88
2023-04-05T07:18:11.166Z,13.77
2023-04-05T07:20:37.646Z,12.98
2023-04-05T07:23:04.496Z,14.43
2023-04-05T07:25:31.337Z,13.15
2023-04-05T07:27:57.710Z,12.00
2023-04-05T07:30:24.039Z,12.25
2023-04-05T07:32:50.355Z,12.38
2023-04-05T07:35:17.176Z,12.40
2023-04-05T07:37:43.535Z,11.80
2023-04-05T07:40:09.888Z,10.82
2023-04-05T07:42:36.478Z,11.35
2023-04-05T07:45:02.823Z,12.90
2023-04-05T07:47:29.273Z,11.60
2023-04-05T07:49:55.905Z,10.77
2023-04-05T07:52:22.207Z,12.32
2023-04-05T07:54:48.987Z,11.55
2023-04-05T07:57:15.478Z,12.88
2023-04-05T07:59:42.062Z,10.93
2023-04-05T08:02:14.535Z,11.18
2023-04-05T08:04:41.571Z,11.48
2023-04-05T08:07:08.124Z,10.80
2023-04-05T08:09:34.472Z,10.75
2023-04-05T08:12:01.277Z,11.65
2023-04-05T08:14:27.720Z,11.35
2023-04-05T08:16:54.056Z,9.93
2023-04-05T08:19:21.025Z,12.13
2023-04-05T08:21:47.391Z,12.40
2023-04-05T08:24:13.885Z,12.70
2023-04-05T08:26:40.261Z,11.95
2023-04-05T08:29:07.229Z,11.90
2023-04-05T08:31:33.622Z,11.00
2023-04-05T08:34:00.132Z,16.80
2023-04-05T08:36:26.744Z,11.80
2023-04-05T08:38:53.071Z,13.10
2023-04-05T08:41:19.826Z,11.52
2023-04-05T08:43:46.466Z,12.63
2023-04-05T08:46:13.182Z,11.70
2023-04-05T08:48:40.530Z,12.15
2023-04-05T08:51:06.997Z,13.55
2023-04-05T08:53:33.467Z,11.57
2023-04-05T08:56:00.038Z,11.90
2023-04-05T08:58:26.571Z,11.57
2023-04-05T09:00:53.136Z,11.77
2023-04-05T09:03:19.843Z,13.88
2023-04-05T09:05:46.470Z,12.23
2023-04-05T09:08:13.110Z,11.60
2023-04-05T09:10:40.023Z,11.98
2023-04-05T09:13:07.184Z,10.85
2023-04-05T09:15:33.557Z,12.23
2023-04-05T09:17:59.857Z,11.48
2023-04-05T09:20:26.307Z,11.02
2023-04-05T09:22:52.634Z,11.50
2023-04-05T09:25:18.983Z,10.73
2023-04-05T09:27:45.531Z,11.70
2023-04-05T09:30:11.881Z,11.98
2023-04-05T09:32:38.217Z,11.48
2023-04-05T09:35:05.168Z,11.75
2023-04-05T09:37:31.596Z,14.85
2023-04-05T09:39:58.330Z,12.20
2023-04-05T09:42:24.638Z,10.93
2023-04-05T09:44:51.105Z,11.93
2023-04-05T09:47:17.520Z,11.20
2023-04-05T09:49:44.313Z,9.93
2023-04-05T09:52:10.642Z,12.38
2023-04-05T09:54:37.696Z,10.18
2023-04-05T09:57:04.055Z,11.88
2023-04-05T09:59:30.504Z,10.60
2023-04-05T10:01:56.955Z,8.90
2023-04-05T10:04:23.617Z,10.23
2023-04-05T10:06:50.113Z,10.32
2023-04-05T10:09:16.525Z,10.32
2023-04-05T10:11:42.836Z,9.93
2023-04-05T10:14:09.094Z,10.57
2023-04-05T10:16:35.561Z,9.18
2023-04-05T10:19:01.960Z,9.63
2023-04-05T10:21:28.285Z,9.82
2023-04-05T10:23:54.853Z,10.10
2023-04-05T10:26:21.471Z,10.02
2023-04-05T10:28:47.833Z,8.43
2023-04-05T10:31:21.031Z,8.55
2023-04-05T10:33:50.563Z,8.68
2023-04-05T10:36:17.030Z,9.23
2023-04-05T10:38:43.629Z,8.88
2023-04-05T10:41:10.400Z,9.57
2023-04-05T10:43:36.929Z,9.05
2023-04-05T10:46:03.523Z,8.98
2023-04-05T10:48:29.958Z,8.60
2023-04-05T10:50:56.461Z,7.53
2023-04-05T10:53:22.969Z,8.90
2023-04-05T10:55:49.806Z,10.10
2023-04-05T10:58:16.722Z,8.00
2023-04-05T11:00:43.435Z,8.77
2023-04-05T11:03:10.210Z,9.18
2023-04-05T11:05:36.958Z,7.88
2023-04-05T11:08:03.530Z,7.75
2023-04-05T11:10:29.903Z,8.70
2023-04-05T11:12:56.465Z,7.82
2023-04-05T11:15:23.023Z,7.07
2023-04-05T11:17:50.235Z,7.00
2023-04-05T11:20:16.569Z,7.57
2023-04-05T11:22:42.927Z,7.80
2023-04-05T11:25:09.437Z,7.43
2023-04-05T11:27:35.740Z,7.32
2023-04-05T11:30:02.253Z,7.10
2023-04-05T11:32:28.717Z,8.25
2023-04-05T11:34:55.527Z,6.97
2023-04-05T11:37:22.148Z,7.35
2023-04-05T11:39:48.493Z,8.02
2023-04-05T11:42:15.045Z,7.82
2023-04-05T11:44:41.523Z,7.60
2023-04-05T11:47:07.858Z,7.75
2023-04-05T11:49:34.279Z,7.45
2023-04-05T11:52:00.649Z,7.38
2023-04-05T11:54:26.998Z,7.60
2023-04-05T11:56:53.576Z,7.45
2023-04-05T11:59:20.542Z,6.93
2023-04-05T12:01:46.924Z,6.05
2023-04-05T12:04:13.288Z,6.25
2023-04-05T12:06:39.637Z,6.40
2023-04-05T12:09:06.022Z,8.27
2023-04-05T12:11:32.689Z,6.82
2023-04-05T12:13:59.123Z,8.32
2023-04-05T12:16:25.646Z,7.00
2023-04-05T12:18:52.058Z,6.80
2023-04-05T12:21:18.423Z,5.90
2023-04-05T12:23:45.091Z,6.43
2023-04-05T12:26:11.475Z,7.43
2023-04-05T12:28:37.912Z,6.18
2023-04-05T12:31:04.336Z,5.15
2023-04-05T12:33:30.697Z,5.75
2023-04-05T12:35:57.118Z,6.68
2023-04-05T12:38:23.454Z,6.15
2023-04-05T12:40:49.768Z,6.13
2023-04-05T12:43:16.098Z,6.65
2023-04-05T12:45:43.242Z,7.22
2023-04-05T12:48:10.526Z,5.68
2023-04-05T12:50:37.053Z,5.80
2023-04-05T12:53:03.774Z,6.40
2023-04-05T12:55:30.265Z,6.15
2023-04-05T12:57:56.735Z,7.28
2023-04-05T13:00:23.398Z,5.43
2023-04-05T13:02:50.134Z,6.07
2023-04-05T13:05:16.644Z,6.18
2023-04-05T13:07:43.049Z,6.82
2023-04-05T13:10:09.375Z,5.80
2023-04-05T13:12:36.172Z,6.47
2023-04-05T13:15:02.513Z,5.47
2023-04-05T13:17:29.357Z,5.43
2023-04-05T13:19:56.332Z,5.70
2023-04-05T13:22:22.710Z,5.32
2023-04-05T13:24:49.399Z,5.18
2023-04-05T13:27:16.119Z,6.03
2023-04-05T13:29:42.549Z,7.07
2023-04-05T13:32:09.075Z,6.10
2023-04-05T13:34:35.440Z,6.15
2023-04-05T13:37:01.869Z,5.53
2023-04-05T13:39:28.378Z,6.03
2023-04-05T13:41:54.688Z,5.35
2023-04-05T13:44:21.049Z,5.35
2023-04-05T13:46:47.730Z,6.05
2023-04-05T13:49:14.174Z,4.57
2023-04-05T13:51:40.542Z,7.28
2023-04-05T13:54:07.585Z,5.38
2023-04-05T13:56:33.947Z,5.93
2023-04-05T13:59:00.402Z,5.45
2023-04-05T14:01:26.771Z,5.10
2023-04-05T14:03:53.475Z,4.90
2023-04-05T14:06:19.939Z,5.15
2023-04-05T14:08:46.373Z,6.50
2023-04-05T14:11:12.654Z,4.72
2023-04-05T14:13:39.425Z,4.95
2023-04-05T14:16:05.973Z,4.40
2023-04-05T14:18:32.432Z,5.68
2023-04-05T14:20:58.833Z,4.97
2023-04-05T14:23:25.533Z,5.82
2023-04-05T14:25:52.100Z,4.75
2023-04-05T14:28:18.595Z,5.25
2023-04-05T14:30:45.121Z,5.43
2023-04-05T14:33:11.613Z,5.32
2023-04-05T14:35:38.490Z,4.68
2023-04-05T14:38:05.283Z,5.35
2023-04-05T14:40:32.046Z,5.38
2023-04-05T14:42:58.331Z,4.72
2023-04-05T14:45:24.692Z,5.72
2023-04-05T14:47:51.095Z,4.38
2023-04-05T14:50:17.764Z,5.00
2023-04-05T14:52:44.187Z,4.95
2023-04-05T14:55:10.502Z,4.93
2023-04-05T14:57:37.196Z,5.93
2023-04-05T15:00:03.735Z,5.53
2023-04-05T15:02:30.253Z,5.72
2023-04-05T15:04:56.910Z,4.88
2023-04-05T15:07:23.276Z,4.82
2023-04-05T15:09:50.080Z,5.07
2023-04-05T15:12:16.411Z,4.00
2023-04-05T15:14:42.958Z,4.57
2023-04-05T15:17:09.345Z,4.65
2023-04-05T15:19:35.873Z,4.07
2023-04-05T15:22:02.380Z,4.40
2023-04-05T15:24:29.217Z,4.38
2023-04-05T15:26:55.850Z,5.15
2023-04-05T15:29:22.293Z,4.57
2023-04-05T15:31:49.019Z,4.90
2023-04-05T15:34:15.481Z,4.75
2023-04-05T15:36:41.821Z,3.97
2023-04-05T15:39:08.189Z,5.20
2023-04-05T15:41:34.573Z,5.10
2023-04-05T15:44:01.243Z,5.38
2023-04-05T15:46:27.846Z,3.95
2023-04-05T15:48:54.220Z,4.55
2023-04-05T15:51:20.725Z,4.57
2023-04-05T15:53:47.484Z,5.68
2023-04-05T15:56:14.006Z,4.75
2023-04-05T15:58:40.412Z,4.57
2023-04-05T16:01:07.182Z,5.18
2023-04-05T16:03:33.605Z,4.65
2023-04-05T16:06:00.150Z,4.93
2023-04-05T16:08:26.806Z,5.53
2023-04-05T16:10:53.158Z,6.18
2023-04-05T16:13:19.615Z,5.22
2023-04-05T16:15:46.168Z,4.63
2023-04-05T16:18:12.537Z,4.60
2023-04-05T16:20:39.034Z,4.18
2023-04-05T16:23:05.885Z,5.35
2023-04-05T16:25:32.252Z,4.85
2023-04-05T16:27:58.646Z,4.55
2023-04-05T16:30:25.372Z,5.43
2023-04-05T16:32:51.711Z,4.10
2023-04-05T16:35:18.127Z,4.22
2023-04-05T16:37:44.510Z,4.85
2023-04-05T16:40:10.822Z,4.45
2023-04-05T16:42:37.177Z,4.28
2023-04-05T16:45:03.561Z,4.93
2023-04-05T16:47:29.973Z,4.82
2023-04-05T16:49:56.279Z,4.47
2023-04-05T16:52:22.822Z,5.18
2023-04-05T16:54:49.188Z,4.57
2023-04-05T16:57:15.910Z,5.03
2023-04-05T16:59:42.285Z,4.13
2023-04-05T17:02:09.167Z,5.00
2023-04-05T17:04:37.201Z,4.20
2023-04-05T17:07:04.046Z,5.38
2023-04-05T17:09:30.400Z,5.00
2023-04-05T17:11:56.875Z,4.22
2023-04-05T17:14:23.173Z,4.68
2023-04-05T17:16:49.451Z,5.20
2023-04-05T17:19:15.855Z,4.05
2023-04-05T17:21:42.193Z,5.15
2023-04-05T17:24:08.889Z,4.32
2023-04-05T17:26:35.240Z,4.10
2023-04-05T17:29:01.680Z,3.90
2023-04-05T17:31:28.282Z,4.30
2023-04-05T17:33:54.744Z,5.00
2023-04-05T17:36:21.170Z,4.53
2023-04-05T17:38:47.960Z,4.55
2023-04-05T17:41:14.602Z,4.30
2023-04-05T17:43:41.075Z,4.63
2023-04-05T17:46:07.506Z,4.60
2023-04-05T17:48:33.898Z,4.55
2023-04-05T17:51:00.343Z,3.80
2023-04-05T17:53:27.270Z,4.07
2023-04-05T17:55:53.627Z,4.60
2023-04-05T17:58:19.936Z,4.00
2023-04-05T18:00:46.338Z,4.72
2023-04-05T18:03:13.613Z,3.75
2023-04-05T18:05:40.064Z,4.55
2023-04-05T18:08:06.531Z,3.92
2023-04-05T18:10:33.116Z,5.35
2023-04-05T18:12:59.699Z,4.53
2023-04-05T18:15:26.228Z,3.95
2023-04-05T18:17:53.061Z,3.60
2023-04-05T18:20:20.042Z,4.22
2023-04-05T18:22:46.436Z,4.15
2023-04-05T18:25:13.214Z,3.83
2023-04-05T18:27:39.509Z,4.28
2023-04-05T18:30:06.075Z,3.70
2023-04-05T18:32:32.538Z,4.05
2023-04-05T18:34:59.264Z,4.88
2023-04-05T18:37:26.041Z,4.60
2023-04-05T18:39:52.450Z,4.32
2023-04-05T18:42:18.852Z,4.18
2023-04-05T18:44:45.214Z,4.82
2023-04-05T18:47:11.757Z,4.65
2023-04-05T18:49:38.299Z,4.38
2023-04-05T18:52:04.731Z,3.85
2023-04-05T18:54:31.488Z,4.10
2023-04-05T18:56:57.859Z,4.32
2023-04-05T18:59:24.395Z,4.40
2023-04-05T19:01:51.064Z,5.55
2023-04-05T19:04:17.757Z,4.13
2023-04-05T19:06:44.460Z,3.40
2023-04-05T19:09:10.763Z,3.80
2023-04-05T19:11:37.435Z,4.32
2023-04-05T19:14:04.223Z,3.88
2023-04-05T19:16:31.425Z,3.50
2023-04-05T19:18:57.931Z,3.95
2023-04-05T19:21:24.238Z,4.03
2023-04-05T19:23:50.614Z,3.30
2023-04-05T19:26:17.201Z,3.72
2023-04-05T19:28:43.616Z,4.47
2023-04-05T19:31:10.219Z,3.25
2023-04-05T19:33:36.571Z,3.55
2023-04-05T19:36:03.040Z,3.85
2023-04-05T19:38:29.755Z,4.13
2023-04-05T19:40:56.127Z,3.70
2023-04-05T19:43:22.455Z,3.60
2023-04-05T19:45:49.131Z,3.35
2023-04-05T19:48:15.579Z,3.90
2023-04-05T19:50:45.658Z,4.35
2023-04-05T19:53:12.035Z,3.53
2023-04-05T19:55:39.083Z,2.80
2023-04-05T19:58:05.528Z,3.22
2023-04-05T20:00:32.004Z,3.60
2023-04-05T20:02:58.779Z,4.65
2023-04-05T20:05:25.459Z,3.88
2023-04-05T20:07:51.873Z,4.18
2023-04-05T20:10:18.346Z,3.25
2023-04-05T20:12:45.013Z,3.20
2023-04-05T20:15:11.354Z,3.30
2023-04-05T20:17:37.722Z,4.38
2023-04-05T20:20:04.190Z,3.88
2023-04-05T20:22:30.520Z,3.35
2023-04-05T20:24:58.264Z,3.53
2023-04-05T20:27:24.969Z,3.60
2023-04-05T20:29:51.495Z,3.53
2023-04-05T20:32:18.362Z,3.47
2023-04-05T20:34:44.953Z,3.25
2023-04-05T20:37:11.437Z,3.33
2023-04-05T20:39:37.837Z,2.53
2023-04-05T20:42:04.202Z,2.80
2023-04-05T20:44:30.515Z,3.83
2023-04-05T20:46:56.874Z,3.20
2023-04-05T20:49:23.242Z,3.33
2023-04-05T20:51:49.536Z,3.25
2023-04-05T20:54:15.961Z,2.88
2023-04-05T20:56:42.326Z,3.15
2023-04-05T20:59:08.942Z,3.08
2023-04-05T21:01:35.556Z,3.50
2023-04-05T21:04:01.992Z,3.90
2023-04-05T21:06:28.324Z,3.33
2023-04-05T21:08:55.078Z,3.00
2023-04-05T21:11:22.044Z,3.83
2023-04-05T21:13:49.014Z,4.85
2023-04-05T21:16:15.404Z,3.42
2023-04-05T21:18:41.905Z,3.42
2023-04-05T21:21:08.667Z,3.10
2023-04-05T21:23:35.490Z,3.30
2023-04-05T21:26:01.884Z,3.00
2023-04-05T21:28:28.257Z,3.35
2023-04-05T21:30:54.624Z,3.15
2023-04-05T21:33:20.912Z,3.63
2023-04-05T21:35:47.257Z,2.75
2023-04-05T21:38:15.579Z,3.08
2023-04-05T21:40:42.215Z,2.88
2023-04-05T21:43:08.541Z,3.28
2023-04-05T21:45:35.304Z,2.70
2023-04-05T21:48:01.793Z,3.25
2023-04-05T21:50:28.361Z,3.53
2023-04-05T21:52:55.673Z,3.10
2023-04-05T21:55:22.405Z,2.78
2023-04-05T21:57:48.796Z,3.55
2023-04-05T22:00:15.158Z,2.75
2023-04-05T22:02:42.567Z,3.10
2023-04-05T22:05:09.402Z,2.78
2023-04-05T22:07:35.921Z,2.55
2023-04-05T22:10:02.584Z,2.67
2023-04-05T22:12:28.945Z,3.03
2023-04-05T22:14:55.529Z,3.15
2023-04-05T22:17:22.194Z,2.83
2023-04-05T22:19:48.563Z,2.75
2023-04-05T22:22:15.101Z,3.22
2023-04-05T22:24:41.849Z,3.38
2023-04-05T22:27:08.262Z,3.45
2023-04-05T22:29:35.144Z,3.10
2023-04-05T22:32:01.687Z,2.88
2023-04-05T22:34:28.187Z,3.15
2023-04-05T22:36:54.905Z,3.47
2023-04-05T22:39:21.279Z,3.13
2023-04-05T22:41:47.813Z,3.40
2023-04-05T22:44:14.162Z,3.60
2023-04-05T22:46:40.763Z,3.72
2023-04-05T22:49:07.347Z,3.22
2023-04-05T22:51:34.033Z,3.85
2023-04-05T22:54:00.714Z,3.25
2023-04-05T22:56:27.460Z,3.60
2023-04-05T22:58:54.034Z,3.22
2023-04-05T23:01:20.451Z,3.92
2023-04-05T23:03:46.822Z,3.72
2023-04-05T23:06:13.254Z,3.53
2023-04-05T23:08:39.710Z,3.53
2023-04-05T23:11:06.319Z,3.95
2023-04-05T23:13:32.593Z,3.22
2023-04-05T23:18:49.352Z,3.13
2023-04-05T23:23:59.868Z,3.53
2023-04-05T23:26:26.194Z,4.00
2023-04-05T23:28:52.536Z,4.07
2023-04-05T23:31:19.137Z,5.20
2023-04-05T23:33:45.643Z,3.60
2023-04-05T23:36:12.091Z,4.93
2023-04-05T23:38:38.404Z,3.78
2023-04-05T23:41:04.694Z,3.53
2023-04-05T23:43:31.085Z,3.97
2023-04-05T23:45:57.406Z,3.33
2023-04-05T23:48:23.939Z,3.53
2023-04-05T23:50:50.247Z,4.03
2023-04-05T23:53:16.967Z,3.17
2023-04-05T23:55:43.286Z,3.28
2023-04-05T23:58:09.622Z,3.65
